Time;durP1;ratioP1;P1;durP2;ratioP2;P2;SDS_P1;SDS_P2;PMS_P1;PMS_P2;Temp;Humidity;BMP_temperature;BMP_pressure;BME280_temperature;BME280_humidity;BME280_pressure;Samples;Min_cycle;Max_cycle;Signal;HPM_P1;HPM_P2
2023/09/23 00:00:51;;;;;;;6.38;1.70;;;;;;;9.68;100.00;100203.50;5004194;28;20436;-73
2023/09/23 00:03:36;;;;;;;8.98;1.40;;;;;;;9.61;100.00;100207.47;5042712;28;20578;-72
2023/09/23 00:06:23;;;;;;;3.63;0.90;;;;;;;9.59;100.00;100220.78;4994526;28;20436;-72
2023/09/23 00:09:08;;;;;;;5.95;1.27;;;;;;;9.55;100.00;100214.16;5026458;28;20192;-74
2023/09/23 00:11:52;;;;;;;5.03;1.38;;;;;;;9.51;100.00;100218.66;5008138;28;20094;-74
2023/09/23 00:14:36;;;;;;;4.00;1.10;;;;;;;9.52;100.00;100216.72;5027675;28;20078;-75
2023/09/23 00:17:20;;;;;;;5.95;1.30;;;;;;;9.44;100.00;100215.41;5013978;28;20102;-74
2023/09/23 00:20:16;;;;;;;5.00;1.58;;;;;;;9.46;100.00;100228.97;5008405;28;20465;-75
2023/09/23 00:23:02;;;;;;;5.75;1.25;;;;;;;9.41;100.00;100238.16;5030398;28;20048;-74
2023/09/23 00:25:47;;;;;;;4.80;1.10;;;;;;;9.39;100.00;100241.25;5029070;28;20098;-74
2023/09/23 00:28:32;;;;;;;2.53;0.85;;;;;;;9.33;100.00;100247.13;5026591;28;20076;-74
2023/09/23 00:31:16;;;;;;;8.18;1.33;;;;;;;9.34;100.00;100246.00;5041999;28;20048;-74
2023/09/23 00:34:00;;;;;;;6.43;1.33;;;;;;;9.26;100.00;100246.66;5015862;28;20063;-74
2023/09/23 00:36:45;;;;;;;4.20;1.30;;;;;;;9.24;100.00;100246.94;5026674;28;20039;-74
2023/09/23 00:39:29;;;;;;;3.60;1.13;;;;;;;9.23;100.00;100236.97;5013096;28;20503;-74
2023/09/23 00:42:22;;;;;;;6.65;1.25;;;;;;;9.19;100.00;100241.44;5020285;28;20045;-74
2023/09/23 00:45:14;;;;;;;7.20;1.48;;;;;;;9.17;100.00;100244.50;5042728;28;20162;-74
2023/09/23 00:47:59;;;;;;;8.18;1.30;;;;;;;9.16;100.00;100250.31;5042752;28;20421;-75
2023/09/23 00:50:43;;;;;;;6.45;1.10;;;;;;;9.10;100.00;100257.84;5015441;28;20091;-75
2023/09/23 00:53:28;;;;;;;5.30;1.23;;;;;;;9.13;100.00;100260.03;5016201;28;20091;-75
2023/09/23 00:56:13;;;;;;;3.85;1.33;;;;;;;9.06;100.00;100256.78;5019589;28;20067;-75
2023/09/23 00:58:58;;;;;;;5.15;1.10;;;;;;;9.01;100.00;100262.38;5027536;28;20039;-74
2023/09/23 01:01:42;;;;;;;5.10;1.10;;;;;;;8.98;100.00;100264.91;5026949;28;20170;-74
2023/09/23 01:04:26;;;;;;;9.52;1.55;;;;;;;8.93;100.00;100265.75;5027220;28;20122;-74
2023/09/23 01:07:10;;;;;;;5.60;1.30;;;;;;;8.91;100.00;100270.75;5026910;28;20036;-75
2023/09/23 01:09:54;;;;;;;6.18;1.17;;;;;;;8.94;100.00;100272.94;5007805;28;20075;-75
2023/09/23 01:12:38;;;;;;;4.50;1.30;;;;;;;8.87;100.00;100280.78;5007565;28;20045;-74
2023/09/23 01:15:25;;;;;;;10.10;1.30;;;;;;;8.83;100.00;100280.53;5039930;28;20106;-74
2023/09/23 01:18:18;;;;;;;10.13;1.50;;;;;;;8.79;100.00;100293.28;4998426;28;20507;-74
2023/09/23 01:21:03;;;;;;;4.55;1.55;;;;;;;8.77;100.00;100289.13;4998798;28;20049;-74
2023/09/23 01:23:47;;;;;;;4.03;1.05;;;;;;;8.77;100.00;100291.91;5022173;28;20120;-74
2023/09/23 01:26:31;;;;;;;6.85;1.38;;;;;;;8.70;100.00;100295.00;5041286;28;20044;-75
2023/09/23 01:29:18;;;;;;;11.57;1.98;;;;;;;8.70;100.00;100304.13;5030405;28;20067;-74
2023/09/23 01:32:03;;;;;;;5.70;1.40;;;;;;;8.70;100.00;100301.38;5027464;28;20102;-74
2023/09/23 01:34:48;;;;;;;6.05;1.13;;;;;;;8.67;100.00;100306.66;5041066;28;20044;-74
2023/09/23 01:37:34;;;;;;;9.13;1.33;;;;;;;8.65;100.00;100298.63;5013342;28;20048;-74
2023/09/23 01:40:18;;;;;;;7.18;1.50;;;;;;;8.67;100.00;100304.72;5028255;28;20055;-75
2023/09/23 01:43:02;;;;;;;6.93;1.10;;;;;;;8.67;100.00;100303.91;5040517;28;20043;-75
2023/09/23 01:45:46;;;;;;;8.48;1.20;;;;;;;8.68;100.00;100298.06;5040924;28;20048;-74
2023/09/23 01:48:30;;;;;;;6.70;1.40;;;;;;;8.75;100.00;100305.22;5015537;28;20095;-74
2023/09/23 01:51:16;;;;;;;9.23;1.50;;;;;;;8.76;100.00;100304.94;5011819;28;20583;-74
2023/09/23 01:54:00;;;;;;;5.57;1.10;;;;;;;8.78;100.00;100308.25;5011036;28;20112;-75
2023/09/23 01:56:45;;;;;;;9.15;1.63;;;;;;;8.79;100.00;100307.13;5035729;28;20111;-75
2023/09/23 01:59:29;;;;;;;4.70;1.27;;;;;;;8.82;100.00;100308.50;5029990;28;20056;-75
2023/09/23 02:02:17;;;;;;;3.15;1.10;;;;;;;8.89;100.00;100311.78;5029745;28;20072;-75
2023/09/23 02:05:02;;;;;;;6.55;1.15;;;;;;;8.92;100.00;100311.19;5044443;28;20056;-75
2023/09/23 02:07:50;;;;;;;7.13;1.23;;;;;;;8.94;100.00;100315.34;5016808;28;20095;-75
2023/09/23 02:10:34;;;;;;;9.90;1.35;;;;;;;9.01;100.00;100317.78;5027759;28;20047;-75
2023/09/23 02:13:18;;;;;;;9.27;1.73;;;;;;;9.02;100.00;100319.41;5029695;28;20051;-75
2023/09/23 02:16:04;;;;;;;4.85;1.25;;;;;;;9.06;100.00;100319.69;5012449;28;20036;-75
2023/09/23 02:18:50;;;;;;;5.05;1.55;;;;;;;9.09;100.00;100325.47;5026005;28;20516;-75
2023/09/23 02:21:35;;;;;;;9.60;1.20;;;;;;;9.14;100.00;100327.38;5015825;28;20626;-75
2023/09/23 02:24:19;;;;;;;6.22;1.50;;;;;;;9.14;100.00;100313.53;5016859;28;20055;-75
2023/09/23 02:27:03;;;;;;;3.70;1.15;;;;;;;9.20;100.00;100325.41;5043027;28;20118;-75
2023/09/23 02:29:49;;;;;;;5.70;1.13;;;;;;;9.22;100.00;100323.16;5014664;28;20072;-75
2023/09/23 02:32:34;;;;;;;6.13;1.00;;;;;;;9.25;100.00;100317.03;5033583;28;20043;-75
2023/09/23 02:35:18;;;;;;;5.60;1.50;;;;;;;9.31;100.00;100321.44;5029963;28;20100;-75
2023/09/23 02:38:03;;;;;;;4.05;1.10;;;;;;;9.32;100.00;100323.06;5002664;28;20449;-75
2023/09/23 02:40:50;;;;;;;8.38;1.27;;;;;;;9.29;100.00;100324.47;5010121;28;20087;-75
2023/09/23 02:43:34;;;;;;;6.55;1.40;;;;;;;9.38;100.00;100321.91;5009648;28;20047;-75
2023/09/23 02:46:18;;;;;;;6.32;1.15;;;;;;;9.38;100.00;100322.72;5012954;28;20396;-75
2023/09/23 02:49:03;;;;;;;8.15;1.30;;;;;;;9.39;100.00;100335.50;5009517;28;20044;-75
2023/09/23 02:51:48;;;;;;;7.60;1.02;;;;;;;9.41;100.00;100329.63;5018320;28;20114;-75
2023/09/23 02:54:33;;;;;;;6.50;1.65;;;;;;;9.50;100.00;100333.47;5029862;28;20488;-75
2023/09/23 02:57:17;;;;;;;6.47;1.20;;;;;;;9.49;100.00;100333.72;5048102;28;20051;-75
2023/09/23 03:00:13;;;;;;;7.10;1.30;;;;;;;9.56;100.00;100335.06;5029127;28;20565;-75
2023/09/23 03:02:58;;;;;;;6.20;1.40;;;;;;;9.51;100.00;100343.41;5017064;28;20155;-75
2023/09/23 03:05:54;;;;;;;9.40;1.30;;;;;;;9.53;100.00;100343.97;5022361;28;20043;-75
2023/09/23 03:08:38;;;;;;;3.08;0.85;;;;;;;9.57;100.00;100353.34;5031563;28;20185;-75
2023/09/23 03:11:26;;;;;;;5.95;1.42;;;;;;;9.57;100.00;100353.34;5057357;28;20468;-75
2023/09/23 03:14:12;;;;;;;5.13;1.27;;;;;;;9.55;100.00;100358.34;5018369;28;20036;-75
2023/09/23 03:16:57;;;;;;;7.65;1.38;;;;;;;9.58;100.00;100356.94;5015288;28;20818;-75
2023/09/23 03:19:41;;;;;;;9.30;1.40;;;;;;;9.56;100.00;100357.22;5042766;28;20157;-75
2023/09/23 03:22:25;;;;;;;8.45;1.58;;;;;;;9.58;100.00;100359.69;5028487;28;20048;-75
2023/09/23 03:25:11;;;;;;;6.38;1.20;;;;;;;9.57;100.00;100350.56;5029061;28;20048;-75
2023/09/23 03:27:55;;;;;;;6.38;1.30;;;;;;;9.55;100.00;100361.09;5028349;28;20449;-75
2023/09/23 03:30:39;;;;;;;5.60;1.00;;;;;;;9.55;100.00;100365.84;5029171;28;20508;-75
2023/09/23 03:33:23;;;;;;;3.13;1.05;;;;;;;9.52;100.00;100361.69;5042296;28;20036;-75
2023/09/23 03:36:13;;;;;;;3.85;0.98;;;;;;;9.47;100.00;100367.31;5042291;28;20040;-75
2023/09/23 03:39:00;;;;;;;6.82;1.88;;;;;;;9.45;100.00;100366.75;5017280;28;20051;-75
2023/09/23 03:41:46;;;;;;;6.47;1.42;;;;;;;9.43;100.00;100363.44;5040331;28;20044;-75
2023/09/23 03:44:31;;;;;;;7.90;1.33;;;;;;;9.41;100.00;100365.66;5018439;28;20393;-75
2023/09/23 03:47:15;;;;;;;8.82;1.67;;;;;;;9.30;100.00;100369.63;5042369;28;20040;-75
2023/09/23 03:49:59;;;;;;;4.55;1.30;;;;;;;9.20;100.00;100364.19;5042194;28;20361;-75
2023/09/23 03:52:44;;;;;;;5.15;1.33;;;;;;;9.14;100.00;100361.47;5010273;28;20080;-75
2023/09/23 03:55:29;;;;;;;11.60;1.58;;;;;;;9.03;100.00;100372.91;5061576;28;20111;-75
2023/09/23 03:58:13;;;;;;;7.05;1.40;;;;;;;8.97;100.00;100374.88;4996297;28;20052;-75
2023/09/23 04:01:03;;;;;;;5.55;1.52;;;;;;;8.94;100.00;100372.66;5014213;28;20094;-75
2023/09/23 04:03:48;;;;;;;5.95;1.40;;;;;;;8.91;100.00;100378.78;5022115;28;20076;-75
2023/09/23 04:06:33;;;;;;;5.50;1.40;;;;;;;8.81;100.00;100376.91;5030949;28;20081;-75
2023/09/23 04:09:17;;;;;;;4.32;1.30;;;;;;;8.77;100.00;100383.28;5013371;28;20055;-75
2023/09/23 04:12:01;;;;;;;6.18;1.90;;;;;;;8.69;100.00;100382.78;5041596;28;20159;-75
2023/09/23 04:14:45;;;;;;;6.82;1.40;;;;;;;8.65;100.00;100386.41;5026846;28;20385;-74
2023/09/23 04:17:29;;;;;;;8.50;1.73;;;;;;;8.60;100.00;100383.66;5011471;28;20066;-75
2023/09/23 04:20:14;;;;;;;5.13;1.38;;;;;;;8.53;100.00;100389.50;5021946;28;20445;-75
2023/09/23 04:22:59;;;;;;;5.80;1.40;;;;;;;8.44;100.00;100392.03;5007255;28;20155;-75
2023/09/23 04:25:44;;;;;;;8.88;1.45;;;;;;;8.42;100.00;100393.44;5041071;28;20059;-75
2023/09/23 04:28:27;;;;;;;7.90;1.88;;;;;;;8.40;100.00;100399.22;5027518;28;20515;-75
2023/09/23 04:31:13;;;;;;;7.95;1.40;;;;;;;8.31;100.00;100398.13;5025419;28;20044;-75
2023/09/23 04:33:57;;;;;;;4.53;1.30;;;;;;;8.25;100.00;100410.34;5009435;28;20044;-75
2023/09/23 04:36:41;;;;;;;6.55;1.42;;;;;;;8.15;100.00;100404.81;5010646;28;20126;-75
2023/09/23 04:39:25;;;;;;;6.85;1.50;;;;;;;8.17;100.00;100413.66;5040817;28;20102;-75
2023/09/23 04:42:11;;;;;;;9.32;1.45;;;;;;;8.07;100.00;100411.75;5029841;28;20097;-75
2023/09/23 04:44:55;;;;;;;7.07;1.70;;;;;;;8.05;100.00;100412.03;5027520;28;20048;-75
2023/09/23 04:47:40;;;;;;;7.53;1.55;;;;;;;8.00;100.00;100413.97;5013039;28;20075;-75
2023/09/23 04:50:27;;;;;;;6.00;1.55;;;;;;;7.95;100.00;100416.75;5026892;28;20040;-75
2023/09/23 04:53:11;;;;;;;5.05;2.00;;;;;;;7.97;100.00;100417.31;5028501;28;20044;-75
2023/09/23 04:55:58;;;;;;;9.35;1.80;;;;;;;7.90;100.00;100416.75;5045296;28;20036;-75
2023/09/23 04:58:42;;;;;;;7.50;1.70;;;;;;;7.87;100.00;100420.06;5027564;28;20397;-75
2023/09/23 05:01:28;;;;;;;5.53;1.50;;;;;;;7.86;100.00;100421.19;5009599;28;20059;-75
2023/09/23 05:04:13;;;;;;;4.35;1.45;;;;;;;7.76;100.00;100436.66;5025054;28;20111;-75
2023/09/23 05:06:57;;;;;;;9.10;1.50;;;;;;;7.77;100.00;100435.56;5040218;28;20098;-74
2023/09/23 05:09:41;;;;;;;6.03;1.40;;;;;;;7.67;100.00;100448.56;5012661;28;20091;-75
2023/09/23 05:12:25;;;;;;;8.05;1.77;;;;;;;7.67;100.00;100449.38;5012474;28;20116;-75
2023/09/23 05:15:14;;;;;;;4.63;1.38;;;;;;;7.69;100.00;100446.34;5013508;28;20036;-75
2023/09/23 05:17:59;;;;;;;7.60;1.42;;;;;;;7.59;100.00;100453.53;5030264;28;20083;-75
2023/09/23 05:20:43;;;;;;;7.82;1.48;;;;;;;7.56;100.00;100447.72;5041030;28;20040;-75
2023/09/23 05:23:28;;;;;;;5.05;1.25;;;;;;;7.54;100.00;100466.50;5040649;28;20083;-75
2023/09/23 05:26:12;;;;;;;7.63;1.60;;;;;;;7.56;100.00;100464.31;5029702;28;20032;-75
2023/09/23 05:28:56;;;;;;;8.13;1.92;;;;;;;7.56;100.00;100464.31;5016854;28;20099;-75
2023/09/23 05:31:41;;;;;;;5.57;1.63;;;;;;;7.51;100.00;100467.06;5030872;28;20416;-74
2023/09/23 05:34:25;;;;;;;4.15;1.40;;;;;;;7.45;100.00;100469.00;5017050;28;20032;-75
2023/09/23 05:37:12;;;;;;;7.22;1.50;;;;;;;7.43;100.00;100476.72;5031647;28;20036;-75
2023/09/23 05:39:57;;;;;;;6.90;1.85;;;;;;;7.43;100.00;100486.94;5015276;28;20052;-75
2023/09/23 05:42:41;;;;;;;6.65;1.45;;;;;;;7.41;100.00;100501.06;5030269;28;20048;-75
2023/09/23 05:45:25;;;;;;;6.90;1.27;;;;;;;7.36;100.00;100504.63;5048891;28;20039;-75
2023/09/23 05:48:09;;;;;;;5.03;1.52;;;;;;;7.33;100.00;100504.34;5029152;28;20532;-75
2023/09/23 05:51:03;;;;;;;5.30;1.50;;;;;;;7.31;100.00;100512.91;5030133;28;20553;-74
2023/09/23 05:53:47;;;;;;;5.75;1.63;;;;;;;7.32;100.00;100514.53;5024774;28;20036;-75
2023/09/23 05:56:31;;;;;;;8.05;1.83;;;;;;;7.34;100.00;100515.09;5042436;28;20130;-75
2023/09/23 05:59:15;;;;;;;6.25;1.80;;;;;;;7.36;100.00;100523.13;5037117;28;20055;-74
2023/09/23 06:01:59;;;;;;;4.53;1.77;;;;;;;7.39;100.00;100540.00;5047314;28;20051;-75
2023/09/23 06:04:43;;;;;;;6.97;1.63;;;;;;;7.49;100.00;100541.13;5023598;28;20125;-75
2023/09/23 06:07:28;;;;;;;7.30;1.67;;;;;;;7.49;100.00;100544.69;5047592;28;20400;-75
2023/09/23 06:10:15;;;;;;;6.63;1.63;;;;;;;7.52;100.00;100543.34;5015899;28;20102;-74
2023/09/23 06:12:59;;;;;;;10.80;1.88;;;;;;;7.56;100.00;100550.81;5030365;28;20393;-75
2023/09/23 06:15:43;;;;;;;6.13;1.65;;;;;;;7.58;100.00;100561.59;5023491;28;20053;-74
2023/09/23 06:18:27;;;;;;;10.20;1.95;;;;;;;7.63;100.00;100555.25;5010165;28;20096;-75
2023/09/23 06:21:11;;;;;;;8.65;1.88;;;;;;;7.69;100.00;100562.44;5012972;28;20111;-75
2023/09/23 06:23:55;;;;;;;9.77;1.77;;;;;;;7.71;100.00;100565.75;5029118;28;20047;-74
2023/09/23 06:26:39;;;;;;;8.88;1.85;;;;;;;7.77;100.00;100565.53;5037754;28;20040;-74
2023/09/23 06:29:23;;;;;;;9.93;2.05;;;;;;;7.86;100.00;100565.81;5006190;28;20048;-74
2023/09/23 06:32:07;;;;;;;5.63;1.67;;;;;;;7.91;100.00;100564.97;5028971;28;20056;-74
2023/09/23 06:34:51;;;;;;;9.93;1.90;;;;;;;7.96;100.00;100563.03;5024435;28;20039;-75
2023/09/23 06:37:36;;;;;;;6.70;2.05;;;;;;;8.06;100.00;100574.09;5014808;28;20051;-75
2023/09/23 06:40:20;;;;;;;9.07;1.77;;;;;;;8.13;100.00;100571.06;5016816;28;20083;-75
2023/09/23 06:43:04;;;;;;;7.38;1.80;;;;;;;8.20;100.00;100582.69;5005291;28;20696;-75
2023/09/23 06:45:55;;;;;;;10.02;1.98;;;;;;;8.26;100.00;100578.81;5014798;28;20048;-74
2023/09/23 06:48:39;;;;;;;5.20;1.60;;;;;;;8.34;100.00;100588.50;5019625;28;20088;-74
2023/09/23 06:51:23;;;;;;;9.25;1.60;;;;;;;8.41;100.00;100591.88;5014809;28;20095;-75
2023/09/23 06:54:07;;;;;;;6.60;1.98;;;;;;;8.52;100.00;100597.38;5028786;28;20128;-74
2023/09/23 06:56:55;;;;;;;9.73;1.90;;;;;;;8.59;100.00;100598.75;5011428;28;20073;-74
2023/09/23 06:59:39;;;;;;;11.90;2.03;;;;;;;8.68;100.00;100597.06;5028291;28;20098;-74
2023/09/23 07:02:23;;;;;;;13.20;2.75;;;;;;;8.79;100.00;100602.59;5029212;28;20055;-74
2023/09/23 07:05:07;;;;;;;7.60;2.15;;;;;;;8.88;100.00;100614.75;5042990;28;20052;-74
2023/09/23 07:07:51;;;;;;;6.85;1.75;;;;;;;8.99;100.00;100615.56;5010394;28;20098;-75
2023/09/23 07:10:35;;;;;;;6.18;1.58;;;;;;;9.10;100.00;100608.88;5514530;22;20056;-75
2023/09/23 07:13:19;;;;;;;5.43;1.50;;;;;;;9.21;100.00;100615.22;5075824;28;20519;-74
2023/09/23 07:16:03;;;;;;;7.07;1.88;;;;;;;9.34;100.00;100617.41;5061836;28;20070;-74
2023/09/23 07:18:47;;;;;;;7.03;1.85;;;;;;;9.46;100.00;100626.22;5049727;28;20455;-74
2023/09/23 07:21:31;;;;;;;5.60;1.70;;;;;;;9.59;100.00;100622.84;5052498;28;20135;-74
2023/09/23 07:24:15;;;;;;;9.18;1.65;;;;;;;9.75;100.00;100631.06;5047961;28;20075;-74
2023/09/23 07:26:59;;;;;;;6.65;1.67;;;;;;;9.90;100.00;100627.38;5047711;28;20116;-74
2023/09/23 07:29:44;;;;;;;7.80;1.65;;;;;;;10.06;100.00;100635.31;5056449;28;20056;-74
2023/09/23 07:32:28;;;;;;;8.82;1.85;;;;;;;10.23;100.00;100640.47;5062337;28;20043;-74
2023/09/23 07:35:12;;;;;;;5.82;1.77;;;;;;;10.41;100.00;100643.69;5062228;28;20043;-74
2023/09/23 07:37:56;;;;;;;5.78;1.73;;;;;;;10.60;100.00;100649.38;5048344;28;20387;-74
2023/09/23 07:40:40;;;;;;;8.98;2.35;;;;;;;10.77;100.00;100649.78;5045372;28;20453;-74
2023/09/23 07:43:24;;;;;;;7.75;1.75;;;;;;;10.94;100.00;100664.06;5032613;28;20502;-74
2023/09/23 07:46:08;;;;;;;11.25;2.33;;;;;;;11.15;100.00;100669.44;5061508;28;20530;-74
2023/09/23 07:48:52;;;;;;;7.53;1.92;;;;;;;11.34;100.00;100672.28;5027436;28;20044;-74
2023/09/23 07:51:37;;;;;;;9.25;1.90;;;;;;;11.56;100.00;100680.06;5061801;28;20105;-74
2023/09/23 07:54:21;;;;;;;9.80;1.80;;;;;;;11.74;100.00;100679.31;5061504;28;20035;-74
2023/09/23 07:57:05;;;;;;;9.73;2.28;;;;;;;11.92;100.00;100685.22;5061507;28;20040;-74
2023/09/23 07:59:50;;;;;;;8.80;1.67;;;;;;;12.08;100.00;100687.50;5061958;28;20094;-74
2023/09/23 08:02:35;;;;;;;10.25;1.80;;;;;;;12.22;100.00;100687.56;5047481;28;20036;-74
2023/09/23 08:05:23;;;;;;;9.00;2.17;;;;;;;12.36;100.00;100681.25;5042837;28;20377;-74
2023/09/23 08:08:08;;;;;;;4.70;1.55;;;;;;;12.49;100.00;100681.31;5036929;28;20096;-74
2023/09/23 08:10:53;;;;;;;10.65;1.75;;;;;;;12.66;100.00;100691.09;5060996;28;20185;-74
2023/09/23 08:13:37;;;;;;;8.90;2.17;;;;;;;12.82;100.00;100698.06;5043372;28;20037;-74
2023/09/23 08:16:21;;;;;;;7.80;1.80;;;;;;;12.97;100.00;100699.75;5033957;28;20051;-74
2023/09/23 08:19:05;;;;;;;12.98;2.05;;;;;;;13.11;100.00;100706.19;5049193;28;20524;-74
2023/09/23 08:21:49;;;;;;;7.75;2.17;;;;;;;13.30;100.00;100706.16;5076852;28;20070;-74
2023/09/23 08:24:33;;;;;;;8.35;1.88;;;;;;;13.47;100.00;100704.75;5035730;28;20114;-74
2023/09/23 08:27:17;;;;;;;9.13;2.53;;;;;;;13.64;100.00;100700.19;5031656;28;20087;-74
2023/09/23 08:30:01;;;;;;;10.27;2.40;;;;;;;13.83;100.00;100710.44;5047553;28;20047;-75
2023/09/23 08:32:45;;;;;;;9.98;2.30;;;;;;;13.99;100.00;100706.19;5047404;28;20129;-74
2023/09/23 08:35:30;;;;;;;7.18;2.00;;;;;;;14.18;100.00;100713.56;5033323;28;20041;-75
2023/09/23 08:38:14;;;;;;;10.13;2.22;;;;;;;14.36;100.00;100720.19;5040902;28;20110;-75
2023/09/23 08:40:58;;;;;;;7.80;2.10;;;;;;;14.52;100.00;100725.13;5041233;28;20048;-75
2023/09/23 08:43:42;;;;;;;10.15;2.63;;;;;;;14.70;100.00;100728.88;5041387;28;20074;-75
2023/09/23 08:46:27;;;;;;;13.30;2.58;;;;;;;14.87;100.00;100725.38;5033188;28;20101;-75
2023/09/23 08:49:11;;;;;;;8.02;2.20;;;;;;;15.00;100.00;100720.88;5047461;28;20114;-74
2023/09/23 08:51:55;;;;;;;10.60;2.13;;;;;;;15.08;100.00;100731.31;5028618;28;20187;-74
2023/09/23 08:54:39;;;;;;;12.07;2.10;;;;;;;15.19;100.00;100732.69;5057972;28;20028;-75
2023/09/23 08:57:23;;;;;;;6.45;1.48;;;;;;;15.30;100.00;100741.66;5046946;28;20499;-74
2023/09/23 09:00:08;;;;;;;6.22;1.60;;;;;;;15.42;100.00;100750.25;5062191;28;20121;-74
2023/09/23 09:02:52;;;;;;;9.38;2.40;;;;;;;15.58;100.00;100752.66;5049661;28;20147;-75
2023/09/23 09:05:40;;;;;;;9.43;2.28;;;;;;;15.68;100.00;100766.38;5050992;28;20063;-75
2023/09/23 09:08:24;;;;;;;10.98;2.30;;;;;;;15.81;100.00;100765.47;5050985;28;20043;-74
2023/09/23 09:11:09;;;;;;;10.15;1.88;;;;;;;15.95;100.00;100770.13;5020659;28;20048;-75
2023/09/23 09:13:53;;;;;;;9.07;2.17;;;;;;;16.06;100.00;100771.50;5068081;28;20052;-75
2023/09/23 09:16:38;;;;;;;10.65;2.13;;;;;;;16.22;100.00;100774.69;5051207;28;20039;-75
2023/09/23 09:19:22;;;;;;;10.68;2.20;;;;;;;16.41;100.00;100778.03;5031272;28;20043;-75
2023/09/23 09:22:06;;;;;;;11.00;1.70;;;;;;;16.56;100.00;100776.72;5025243;28;20102;-75
2023/09/23 09:24:50;;;;;;;9.95;2.10;;;;;;;16.70;100.00;100785.78;5036662;28;20048;-74
2023/09/23 09:27:34;;;;;;;8.90;2.33;;;;;;;16.85;100.00;100781.69;5064417;28;20151;-75
2023/09/23 09:30:19;;;;;;;6.32;2.33;;;;;;;16.98;100.00;100779.91;5065053;28;20124;-75
2023/09/23 09:33:03;;;;;;;7.32;1.73;;;;;;;17.13;100.00;100776.59;5050996;28;20098;-75
2023/09/23 09:35:47;;;;;;;6.95;2.20;;;;;;;17.24;100.00;100777.03;5051211;28;20501;-75
2023/09/23 09:38:31;;;;;;;10.90;2.05;;;;;;;17.33;100.00;100779.88;5036854;28;20035;-75
2023/09/23 09:41:18;;;;;;;10.27;2.33;;;;;;;17.41;100.00;100784.59;5037276;28;20035;-75
2023/09/23 09:44:02;;;;;;;8.32;1.98;;;;;;;17.51;100.00;100786.25;5049595;28;20040;-75
2023/09/23 09:46:48;;;;;;;6.97;1.58;;;;;;;17.62;100.00;100782.75;5042246;28;20376;-75
2023/09/23 09:49:32;;;;;;;7.50;2.05;;;;;;;17.72;100.00;100781.56;5044464;28;20038;-75
2023/09/23 09:52:22;;;;;;;8.18;1.77;;;;;;;17.80;100.00;100771.47;5063632;28;20056;-75
2023/09/23 09:55:07;;;;;;;7.82;1.90;;;;;;;17.93;100.00;100786.47;5055462;28;20036;-75
2023/09/23 09:57:52;;;;;;;12.55;2.55;;;;;;;18.00;100.00;100781.97;5036142;28;20043;-75
2023/09/23 10:00:42;;;;;;;8.82;1.60;;;;;;;18.07;100.00;100782.25;5023432;28;20048;-75
2023/09/23 10:03:28;;;;;;;6.47;2.33;;;;;;;18.21;100.00;100779.22;5033179;28;20048;-73
2023/09/23 10:06:22;;;;;;;8.40;1.77;;;;;;;18.31;100.00;100789.25;5042675;28;20502;-72
2023/09/23 10:09:14;;;;;;;8.32;1.80;;;;;;;18.42;100.00;100786.88;5051215;28;20079;-72
2023/09/23 10:11:59;;;;;;;5.93;1.92;;;;;;;18.58;100.00;100789.91;5024712;28;20528;-73
2023/09/23 10:14:52;;;;;;;9.27;2.28;;;;;;;18.67;100.00;100793.50;5029982;28;20052;-73
2023/09/23 10:17:37;;;;;;;;;;;;;;;18.83;100.00;100802.16;5016584;28;20094;-72
2023/09/23 10:20:24;;;;;;;9.73;2.08;;;;;;;18.89;100.00;100796.00;5039750;28;20378;-73
2023/09/23 10:23:10;;;;;;;8.45;1.92;;;;;;;19.06;100.00;100800.66;5042153;28;20118;-72
2023/09/23 10:25:55;;;;;;;7.45;1.73;;;;;;;19.20;100.00;100798.38;5029851;28;20044;-72
2023/09/23 10:28:39;;;;;;;6.78;2.03;;;;;;;19.36;100.00;100809.81;5013364;28;20052;-73
2023/09/23 10:31:27;;;;;;;7.88;1.83;;;;;;;19.48;100.00;100806.22;5029723;28;20108;-72
2023/09/23 10:34:14;;;;;;;4.00;1.52;;;;;;;19.62;100.00;100820.00;5028600;28;20036;-73
2023/09/23 10:36:58;;;;;;;5.15;1.70;;;;;;;19.76;100.00;100800.81;5029972;28;20044;-73
2023/09/23 10:39:43;;;;;;;6.57;1.67;;;;;;;19.90;100.00;100803.28;5023382;28;20079;-72
2023/09/23 10:42:27;;;;;;;6.63;1.92;;;;;;;20.00;100.00;100814.13;5041424;28;20443;-72
2023/09/23 10:45:12;;;;;;;6.22;1.70;;;;;;;20.14;100.00;100804.47;5026148;28;20040;-73
2023/09/23 10:47:57;;;;;;;5.40;1.80;;;;;;;20.19;100.00;100805.06;5029574;28;20039;-73
2023/09/23 10:50:41;;;;;;;6.47;1.92;;;;;;;20.37;100.00;100807.66;5043150;28;20103;-73
2023/09/23 10:53:27;;;;;;;6.15;1.70;;;;;;;20.48;100.00;100811.66;5015407;28;20488;-72
2023/09/23 10:56:11;;;;;;;5.18;1.80;;;;;;;20.60;100.00;100806.03;5029237;28;20102;-73
2023/09/23 10:58:55;;;;;;;4.88;1.60;;;;;;;20.72;100.00;100814.44;5042553;28;20155;-73
2023/09/23 11:01:39;;;;;;;6.47;1.63;;;;;;;20.79;100.00;100805.41;5024515;28;20095;-72
2023/09/23 11:04:24;;;;;;;7.20;1.63;;;;;;;20.79;96.57;100811.03;5023446;28;20048;-72
2023/09/23 11:07:08;;;;;;;4.18;1.48;;;;;;;20.87;95.85;100803.63;5016122;28;20413;-73
2023/09/23 11:09:53;;;;;;;3.85;1.30;;;;;;;20.91;97.01;100811.00;5042767;28;20143;-73
2023/09/23 11:12:37;;;;;;;5.72;2.00;;;;;;;20.94;97.56;100813.09;5027917;28;20068;-72
2023/09/23 11:15:22;;;;;;;6.45;1.90;;;;;;;20.97;100.00;100805.94;5029081;28;20094;-73
2023/09/23 11:18:16;;;;;;;5.75;1.55;;;;;;;21.02;100.00;100814.16;5024576;28;20126;-73
2023/09/23 11:21:00;;;;;;;3.83;1.42;;;;;;;21.02;95.42;100816.16;5024274;28;20040;-73
2023/09/23 11:23:45;;;;;;;4.03;1.95;;;;;;;21.09;98.94;100810.72;5013997;28;20044;-72
2023/09/23 11:26:30;;;;;;;5.22;1.50;;;;;;;21.13;96.74;100823.75;5013488;28;20080;-72
2023/09/23 11:29:14;;;;;;;4.80;1.70;;;;;;;21.15;91.91;100812.94;5041445;28;20052;-73
2023/09/23 11:31:59;;;;;;;5.55;1.45;;;;;;;21.26;96.12;100826.56;5013943;28;20090;-72
2023/09/23 11:34:43;;;;;;;5.03;1.77;;;;;;;21.31;94.45;100824.31;5041813;28;20071;-73
2023/09/23 11:37:27;;;;;;;3.75;1.35;;;;;;;21.45;93.66;100828.72;5014339;28;20039;-72
2023/09/23 11:40:12;;;;;;;3.90;1.60;;;;;;;21.54;90.48;100827.41;5014304;28;20047;-72
2023/09/23 11:42:56;;;;;;;4.60;1.52;;;;;;;21.67;86.98;100824.50;5014255;28;20511;-72
2023/09/23 11:45:43;;;;;;;3.95;1.70;;;;;;;21.79;86.81;100832.91;5041460;28;20084;-73
2023/09/23 11:48:27;;;;;;;4.03;1.60;;;;;;;21.84;88.12;100839.13;5042184;28;20048;-73
2023/09/23 11:51:11;;;;;;;5.65;1.58;;;;;;;21.91;86.96;100835.66;5016198;28;20458;-72
2023/09/23 11:53:55;;;;;;;4.20;1.55;;;;;;;21.99;86.27;100831.84;5042015;28;20498;-72
2023/09/23 11:56:39;;;;;;;5.50;1.70;;;;;;;22.06;79.44;100829.22;5034850;28;20043;-72
2023/09/23 11:59:24;;;;;;;3.47;1.75;;;;;;;22.13;74.21;100819.25;5041780;28;20516;-73
2023/09/23 12:02:08;;;;;;;6.88;1.80;;;;;;;22.21;70.13;100815.44;5033420;28;20514;-73
2023/09/23 12:04:52;;;;;;;4.75;1.80;;;;;;;22.27;67.87;100823.28;5013816;28;20512;-73
2023/09/23 12:07:37;;;;;;;3.90;1.60;;;;;;;;;;5027588;28;20059;-73
2023/09/23 12:10:21;;;;;;;5.50;1.83;;;;;;;22.54;73.95;100823.53;5014932;28;20121;-73
2023/09/23 12:13:06;;;;;;;4.90;1.73;;;;;;;22.56;67.11;100825.97;5009081;28;20067;-73
2023/09/23 12:15:52;;;;;;;4.70;1.88;;;;;;;22.61;64.12;100822.88;5041073;28;20077;-73
2023/09/23 12:18:36;;;;;;;7.10;1.90;;;;;;;22.66;60.81;100831.09;5023209;28;20052;-73
2023/09/23 12:21:20;;;;;;;4.53;1.45;;;;;;;22.69;64.04;100833.19;5040944;28;20051;-73
2023/09/23 12:24:04;;;;;;;5.22;1.60;;;;;;;22.78;65.86;100835.81;5004236;28;20071;-73
2023/09/23 12:26:48;;;;;;;3.63;1.67;;;;;;;22.83;60.57;100835.53;5000709;28;20122;-73
2023/09/23 12:29:32;;;;;;;6.18;1.50;;;;;;;22.87;63.92;100828.75;5056163;28;20091;-73
2023/09/23 12:32:16;;;;;;;4.60;1.65;;;;;;;22.93;62.45;100820.78;5026943;28;20118;-73
2023/09/23 12:35:00;;;;;;;5.32;1.60;;;;;;;22.99;64.57;100829.84;5029686;28;20091;-73
2023/09/23 12:37:45;;;;;;;6.75;2.08;;;;;;;23.05;67.20;100834.03;5040848;28;20393;-73
2023/09/23 12:40:29;;;;;;;5.30;1.70;;;;;;;23.08;59.40;100831.25;5020402;28;20198;-73
2023/09/23 12:43:13;;;;;;;4.90;1.80;;;;;;;23.14;59.63;100828.94;5045062;28;20040;-73